createdAt,value
2018-05-11T00:01:01.535Z,59.33
2018-05-11T00:02:04.843Z,59.38
2018-05-11T00:03:08.175Z,59.44
2018-05-11T00:04:11.506Z,59.49
2018-05-11T00:05:14.835Z,59.51
2018-05-11T00:06:18.130Z,59.51
2018-05-11T00:07:21.490Z,59.52
2018-05-11T00:08:25.065Z,59.51
2018-05-11T00:09:29.218Z,59.49
2018-05-11T00:10:32.539Z,59.47
2018-05-11T00:11:35.862Z,59.45
2018-05-11T00:12:39.196Z,59.47
2018-05-11T00:13:42.791Z,59.47
2018-05-11T00:14:46.173Z,59.47
2018-05-11T00:15:49.468Z,59.47
2018-05-11T00:16:52.799Z,59.50
2018-05-11T00:17:56.118Z,59.50
2018-05-11T00:18:59.427Z,59.51
2018-05-11T00:20:02.781Z,59.53
2018-05-11T00:21:06.225Z,59.53
2018-05-11T00:22:09.541Z,59.57
2018-05-11T00:23:12.855Z,59.59
2018-05-11T00:24:16.203Z,59.61
2018-05-11T00:25:19.545Z,59.62
2018-05-11T00:26:22.868Z,59.61
2018-05-11T00:27:26.187Z,59.63
2018-05-11T00:28:29.517Z,59.67
2018-05-11T00:29:32.820Z,59.71
2018-05-11T00:30:36.141Z,59.73
2018-05-11T00:31:39.458Z,59.72
2018-05-11T00:32:42.791Z,59.74
2018-05-11T00:33:46.114Z,59.78
2018-05-11T00:34:49.440Z,59.82
2018-05-11T00:35:52.768Z,59.85
2018-05-11T00:36:56.081Z,59.87
2018-05-11T00:37:59.404Z,59.90
2018-05-11T00:39:02.718Z,59.93
2018-05-11T00:40:06.038Z,59.95
2018-05-11T00:41:09.359Z,59.96
2018-05-11T00:42:12.682Z,59.97
2018-05-11T00:43:16.019Z,59.99
2018-05-11T00:44:19.363Z,60.04
2018-05-11T00:45:22.664Z,60.06
2018-05-11T00:46:25.986Z,60.10
2018-05-11T00:47:29.298Z,60.14
2018-05-11T00:48:32.616Z,60.15
2018-05-11T00:49:35.929Z,60.23
2018-05-11T00:50:39.239Z,60.24
2018-05-11T00:51:42.594Z,60.25
2018-05-11T00:52:45.932Z,60.27
2018-05-11T00:53:49.269Z,60.29
2018-05-11T00:54:52.591Z,60.30
2018-05-11T00:55:56.020Z,60.32
2018-05-11T00:56:59.287Z,60.38
2018-05-11T00:58:02.613Z,60.43
2018-05-11T00:59:05.955Z,60.48
2018-05-11T01:00:09.254Z,60.52
2018-05-11T01:01:12.579Z,60.56
2018-05-11T01:02:15.933Z,60.62
2018-05-11T01:03:19.242Z,60.69
2018-05-11T01:04:22.563Z,60.76
2018-05-11T01:05:25.882Z,60.81
2018-05-11T01:06:29.195Z,60.86
2018-05-11T01:07:32.548Z,60.90
2018-05-11T01:08:35.867Z,60.93
2018-05-11T01:09:39.179Z,60.98
2018-05-11T01:10:42.494Z,61.01
2018-05-11T01:11:45.839Z,61.03
2018-05-11T01:12:49.194Z,61.07
2018-05-11T01:13:52.809Z,61.09
2018-05-11T01:14:56.126Z,61.11
2018-05-11T01:15:59.455Z,61.10
2018-05-11T01:17:02.790Z,61.13
2018-05-11T01:18:06.127Z,61.15
2018-05-11T01:19:09.447Z,61.16
2018-05-11T01:20:12.751Z,61.17
2018-05-11T01:21:16.080Z,61.19
2018-05-11T01:22:19.401Z,61.21
2018-05-11T01:23:22.772Z,61.22
2018-05-11T01:24:26.089Z,61.24
2018-05-11T01:25:29.411Z,61.27
2018-05-11T01:26:32.723Z,61.29
2018-05-11T01:27:36.048Z,61.29
2018-05-11T01:28:39.382Z,61.31
2018-05-11T01:29:42.699Z,61.34
2018-05-11T01:30:46.003Z,61.37
2018-05-11T01:33:54.086Z,61.38
2018-05-11T01:34:57.417Z,61.39
2018-05-11T01:37:03.086Z,61.39
2018-05-11T01:38:06.426Z,61.42
2018-05-11T01:39:09.766Z,61.42
2018-05-11T01:40:13.106Z,61.42
2018-05-11T01:41:16.414Z,61.44
2018-05-11T01:42:19.908Z,61.45
2018-05-11T01:43:23.223Z,61.44
2018-05-11T01:44:26.587Z,61.46
2018-05-11T01:45:29.951Z,61.49
2018-05-11T01:46:33.290Z,61.50
2018-05-11T01:47:36.611Z,61.51
2018-05-11T01:48:40.073Z,61.54
2018-05-11T01:49:43.411Z,61.56
2018-05-11T01:50:46.741Z,61.58
2018-05-11T01:51:50.380Z,61.59
2018-05-11T01:52:53.705Z,61.61
2018-05-11T01:53:57.027Z,61.65
2018-05-11T01:55:00.395Z,61.67
2018-05-11T01:56:03.725Z,61.68
2018-05-11T01:57:07.048Z,61.70
2018-05-11T01:58:10.394Z,61.72
2018-05-11T01:59:13.718Z,61.72
2018-05-11T02:00:17.073Z,61.76
2018-05-11T02:01:20.399Z,61.77
2018-05-11T02:02:23.734Z,61.79
2018-05-11T02:03:27.065Z,61.82
2018-05-11T02:04:30.383Z,61.84
2018-05-11T02:05:33.748Z,61.87
2018-05-11T02:06:37.084Z,61.90
2018-05-11T02:07:40.405Z,61.91
2018-05-11T02:08:43.721Z,61.92
2018-05-11T02:09:47.059Z,61.95
2018-05-11T02:10:50.425Z,61.96
2018-05-11T02:11:53.760Z,62.00
2018-05-11T02:12:57.141Z,62.02
2018-05-11T02:14:00.574Z,62.03
2018-05-11T02:15:03.899Z,62.05
2018-05-11T02:16:07.253Z,62.09
2018-05-11T02:17:10.586Z,62.11
2018-05-11T02:18:13.916Z,62.13
2018-05-11T02:19:17.243Z,62.13
2018-05-11T02:20:20.579Z,62.16
2018-05-11T02:21:23.921Z,62.14
2018-05-11T02:22:27.260Z,62.16
2018-05-11T02:23:30.663Z,62.15
2018-05-11T02:24:34.001Z,62.15
2018-05-11T02:25:37.351Z,62.16
2018-05-11T02:26:40.700Z,62.18
2018-05-11T02:27:44.025Z,62.20
2018-05-11T02:28:47.345Z,62.22
2018-05-11T02:29:50.659Z,62.24
2018-05-11T02:30:53.979Z,62.26
2018-05-11T02:31:57.329Z,62.28
2018-05-11T02:33:00.649Z,62.30
2018-05-11T02:34:03.967Z,62.31
2018-05-11T02:35:07.299Z,62.32
2018-05-11T02:36:10.622Z,62.37
2018-05-11T02:37:13.975Z,62.38
2018-05-11T02:38:17.323Z,62.39
2018-05-11T02:39:20.642Z,62.40
2018-05-11T02:40:23.973Z,62.41
2018-05-11T02:41:27.305Z,62.43
2018-05-11T02:42:30.944Z,62.44
2018-05-11T02:43:34.261Z,62.44
2018-05-11T02:44:37.624Z,62.46
2018-05-11T02:45:40.953Z,62.45
2018-05-11T02:46:44.393Z,62.46
2018-05-11T02:47:47.739Z,62.45
2018-05-11T02:48:51.056Z,62.45
2018-05-11T02:49:54.372Z,62.45
2018-05-11T02:50:57.706Z,62.45
2018-05-11T02:52:01.059Z,62.47
2018-05-11T02:53:04.395Z,62.49
2018-05-11T02:54:07.760Z,62.51
2018-05-11T02:55:11.087Z,62.52
2018-05-11T02:56:14.416Z,62.56
2018-05-11T02:57:17.746Z,62.59
2018-05-11T02:58:21.097Z,62.61
2018-05-11T02:59:24.425Z,62.63
2018-05-11T03:00:27.779Z,62.67
2018-05-11T03:01:31.106Z,62.70
2018-05-11T03:02:34.429Z,62.72
2018-05-11T03:03:37.802Z,62.75
2018-05-11T03:04:41.139Z,62.78
2018-05-11T03:05:44.474Z,62.80
2018-05-11T03:06:47.796Z,62.82
2018-05-11T03:07:51.124Z,62.84
2018-05-11T03:08:54.472Z,62.85
2018-05-11T03:09:57.955Z,62.86
2018-05-11T03:11:01.263Z,62.90
2018-05-11T03:12:04.591Z,62.92
2018-05-11T03:13:07.907Z,62.96
2018-05-11T03:14:11.295Z,62.99
2018-05-11T03:15:14.610Z,63.01
2018-05-11T03:16:17.930Z,63.03
2018-05-11T03:17:21.277Z,63.04
2018-05-11T03:18:24.590Z,63.06
2018-05-11T03:19:28.088Z,63.08
2018-05-11T03:20:31.403Z,63.09
2018-05-11T03:21:34.724Z,63.13
2018-05-11T03:22:38.059Z,63.18
2018-05-11T03:23:41.387Z,63.21
2018-05-11T03:24:44.730Z,63.24
2018-05-11T03:25:48.053Z,63.27
2018-05-11T03:26:51.382Z,63.29
2018-05-11T03:27:54.703Z,63.33
2018-05-11T03:28:58.031Z,63.37
2018-05-11T03:30:01.368Z,63.40
2018-05-11T03:31:04.677Z,63.42
2018-05-11T03:32:08.003Z,63.44
2018-05-11T03:33:11.330Z,63.48
2018-05-11T03:34:14.648Z,63.51
2018-05-11T03:35:17.990Z,63.55
2018-05-11T03:36:21.306Z,63.58
2018-05-11T03:37:24.627Z,63.61
2018-05-11T03:38:27.947Z,63.63
2018-05-11T03:39:31.329Z,63.65
2018-05-11T03:40:34.730Z,63.68
2018-05-11T03:41:38.068Z,63.70
2018-05-11T03:42:41.386Z,63.73
2018-05-11T03:43:44.713Z,63.75
2018-05-11T03:44:48.028Z,63.76
2018-05-11T03:45:51.384Z,63.79
2018-05-11T03:46:54.703Z,63.84
2018-05-11T03:47:58.014Z,63.89
2018-05-11T03:49:01.376Z,63.91
2018-05-11T03:50:04.706Z,63.94
2018-05-11T03:51:08.059Z,63.98
2018-05-11T03:52:11.392Z,64.01
2018-05-11T03:53:14.734Z,64.05
2018-05-11T03:54:18.085Z,64.09
2018-05-11T03:55:21.415Z,64.11
2018-05-11T03:56:24.792Z,64.16
2018-05-11T03:57:28.134Z,64.22
2018-05-11T03:58:31.454Z,64.27
2018-05-11T03:59:34.771Z,64.31
2018-05-11T04:00:38.093Z,64.35
2018-05-11T04:01:53.331Z,64.39
2018-05-11T04:03:08.555Z,64.50
2018-05-11T04:04:23.596Z,64.59
2018-05-11T04:05:38.707Z,64.67
2018-05-11T04:06:54.847Z,64.73
2018-05-11T04:08:09.883Z,64.79
2018-05-11T04:09:13.207Z,64.85
2018-05-11T04:10:16.663Z,64.81
2018-05-11T04:11:20.007Z,64.81
2018-05-11T04:12:23.337Z,64.83
2018-05-11T04:13:26.664Z,64.81
2018-05-11T04:14:31.080Z,64.85
2018-05-11T04:15:34.448Z,64.86
2018-05-11T04:16:37.760Z,64.86
2018-05-11T04:17:41.107Z,64.86
2018-05-11T04:18:44.458Z,64.86
2018-05-11T04:19:47.799Z,64.86
2018-05-11T04:20:51.158Z,64.86
2018-05-11T04:21:54.471Z,64.88
2018-05-11T04:22:57.834Z,64.89
2018-05-11T04:24:01.154Z,64.89
2018-05-11T04:25:04.471Z,64.90
2018-05-11T04:26:07.800Z,64.91
2018-05-11T04:27:11.111Z,64.93
2018-05-11T04:28:14.461Z,64.93
2018-05-11T04:29:17.783Z,64.94
2018-05-11T04:30:21.113Z,64.96
2018-05-11T04:31:24.423Z,64.97
2018-05-11T04:32:27.743Z,64.97
2018-05-11T04:33:31.102Z,64.97
2018-05-11T04:34:34.439Z,64.96
2018-05-11T04:35:37.826Z,64.96
2018-05-11T04:36:41.138Z,64.93
2018-05-11T04:37:44.467Z,64.92
2018-05-11T04:38:47.809Z,64.87
2018-05-11T04:39:51.139Z,64.86
2018-05-11T04:40:54.451Z,64.85
2018-05-11T04:41:57.770Z,64.82
2018-05-11T04:43:01.092Z,64.77
2018-05-11T04:44:04.431Z,64.73
2018-05-11T04:45:07.930Z,64.69
2018-05-11T04:46:11.200Z,64.60
2018-05-11T04:47:14.664Z,64.51
2018-05-11T04:48:17.978Z,64.46
2018-05-11T04:49:21.327Z,64.45
2018-05-11T04:50:24.645Z,64.45
2018-05-11T04:51:27.968Z,64.42
2018-05-11T04:52:31.291Z,64.41
2018-05-11T04:53:34.630Z,64.39
2018-05-11T04:54:38.039Z,64.35
2018-05-11T04:55:41.375Z,64.30
2018-05-11T04:56:44.691Z,64.28
2018-05-11T04:57:48.050Z,64.21
2018-05-11T04:58:51.372Z,64.17
2018-05-11T04:59:54.723Z,64.12
2018-05-11T05:00:58.115Z,64.10
2018-05-11T05:02:01.447Z,64.03
2018-05-11T05:03:05.622Z,63.98
2018-05-11T05:04:08.940Z,63.92
2018-05-11T05:05:12.286Z,63.85
2018-05-11T05:06:15.607Z,63.79
2018-05-11T05:07:19.122Z,63.74
2018-05-11T05:08:22.426Z,63.69
2018-05-11T05:09:25.748Z,63.64
2018-05-11T05:10:29.092Z,63.57
2018-05-11T05:11:32.436Z,63.51
2018-05-11T05:12:35.767Z,63.40
2018-05-11T05:13:39.106Z,63.34
2018-05-11T05:14:43.446Z,63.36
2018-05-11T05:15:46.858Z,63.37
2018-05-11T05:16:50.191Z,63.35
2018-05-11T05:17:53.510Z,63.30
2018-05-11T05:18:56.821Z,63.21
2018-05-11T05:20:00.139Z,63.16
2018-05-11T05:21:03.491Z,63.11
2018-05-11T05:22:06.818Z,62.98
2018-05-11T05:23:10.239Z,62.79
2018-05-11T05:24:13.542Z,62.61
2018-05-11T05:25:16.865Z,62.36
2018-05-11T05:26:20.208Z,62.22
2018-05-11T05:27:23.548Z,62.08
2018-05-11T05:28:26.895Z,61.92
2018-05-11T05:29:30.217Z,61.64
2018-05-11T05:30:33.551Z,61.23
2018-05-11T05:31:36.888Z,60.81
2018-05-11T05:32:40.205Z,60.52
2018-05-11T05:33:43.542Z,60.32
2018-05-11T05:34:46.868Z,60.21
2018-05-11T05:35:50.176Z,60.11
2018-05-11T05:36:53.509Z,60.00
2018-05-11T05:37:56.834Z,59.93
2018-05-11T05:39:00.157Z,59.89
2018-05-11T05:40:03.532Z,59.88
2018-05-11T05:41:06.918Z,59.89
2018-05-11T05:42:10.257Z,59.80
2018-05-11T05:43:13.590Z,59.78
2018-05-11T05:44:16.895Z,59.80
2018-05-11T05:45:20.231Z,59.76
2018-05-11T05:46:23.575Z,59.74
2018-05-11T05:47:26.915Z,59.73
2018-05-11T05:48:30.239Z,59.71
2018-05-11T05:49:33.552Z,59.67
2018-05-11T05:50:36.881Z,59.62
2018-05-11T05:51:40.294Z,59.57
2018-05-11T05:52:43.636Z,59.56
2018-05-11T05:53:46.959Z,59.49
2018-05-11T05:54:50.301Z,59.48
2018-05-11T05:55:53.636Z,59.47
2018-05-11T05:56:56.999Z,59.43
2018-05-11T05:58:00.327Z,59.32
2018-05-11T05:59:03.650Z,59.20
2018-05-11T06:00:06.962Z,59.06
2018-05-11T06:01:10.287Z,58.89
2018-05-11T06:02:13.618Z,58.77
2018-05-11T06:03:17.495Z,58.69
2018-05-11T06:04:20.794Z,58.58
2018-05-11T06:05:24.130Z,58.43
2018-05-11T06:06:27.500Z,58.28
2018-05-11T06:07:30.851Z,58.17
2018-05-11T06:08:34.202Z,58.05
2018-05-11T06:09:37.536Z,57.93
2018-05-11T06:10:40.887Z,57.80
2018-05-11T06:11:44.384Z,57.68
2018-05-11T06:12:47.728Z,57.56
2018-05-11T06:13:51.078Z,57.46
2018-05-11T06:14:54.408Z,57.34
2018-05-11T06:15:57.780Z,57.11
2018-05-11T06:17:01.140Z,56.93
2018-05-11T06:18:04.563Z,56.63
2018-05-11T06:19:07.958Z,56.25
2018-05-11T06:20:11.634Z,55.81
2018-05-11T06:21:14.987Z,55.35
2018-05-11T06:22:18.407Z,54.82
2018-05-11T06:23:21.720Z,54.36
2018-05-11T06:24:25.068Z,53.81
2018-05-11T06:25:28.388Z,53.18
2018-05-11T06:26:31.739Z,52.67
2018-05-11T06:27:35.089Z,52.15
2018-05-11T06:28:38.435Z,51.50
2018-05-11T06:29:42.168Z,50.98
2018-05-11T06:30:45.494Z,50.38
2018-05-11T06:31:48.890Z,49.88
2018-05-11T06:32:52.225Z,49.44
2018-05-11T06:33:55.656Z,48.94
2018-05-11T06:34:59.055Z,48.58
2018-05-11T06:36:02.385Z,48.16
2018-05-11T06:37:05.732Z,47.72
2018-05-11T06:38:09.043Z,47.29
2018-05-11T06:39:12.381Z,46.94
2018-05-11T06:40:15.733Z,46.67
2018-05-11T06:41:19.041Z,46.49
2018-05-11T06:42:22.377Z,46.00
2018-05-11T06:43:25.699Z,45.99
2018-05-11T06:44:29.022Z,45.97
2018-05-11T06:45:32.391Z,45.80
2018-05-11T06:46:35.718Z,45.52
2018-05-11T06:47:39.155Z,45.26
2018-05-11T06:48:42.517Z,44.91
2018-05-11T06:49:45.857Z,44.59
2018-05-11T06:50:49.209Z,44.22
2018-05-11T06:51:53.246Z,43.94
2018-05-11T06:52:56.593Z,43.58
2018-05-11T06:53:59.910Z,43.38
2018-05-11T06:55:03.243Z,43.46
2018-05-11T06:56:06.652Z,43.54
2018-05-11T06:57:09.994Z,43.66
2018-05-11T06:58:13.358Z,43.75
2018-05-11T06:59:16.779Z,43.80
2018-05-11T07:00:20.106Z,43.97
2018-05-11T07:01:23.455Z,44.24
2018-05-11T07:02:26.779Z,44.50
2018-05-11T07:03:30.094Z,44.82
2018-05-11T07:04:33.435Z,45.14
2018-05-11T07:05:36.788Z,45.45
2018-05-11T07:06:40.193Z,45.69
2018-05-11T07:07:43.523Z,46.00
2018-05-11T07:08:46.840Z,46.30
2018-05-11T07:09:50.163Z,46.63
2018-05-11T07:10:53.488Z,46.73
2018-05-11T07:11:56.873Z,46.94
2018-05-11T07:13:00.205Z,47.18
2018-05-11T07:14:03.611Z,47.40
2018-05-11T07:15:07.901Z,47.61
2018-05-11T07:16:11.222Z,47.76
2018-05-11T07:17:14.605Z,47.75
2018-05-11T07:18:17.979Z,47.73
2018-05-11T07:19:21.281Z,47.58
2018-05-11T07:20:24.594Z,47.42
2018-05-11T07:21:27.903Z,47.40
2018-05-11T07:22:31.253Z,47.39
2018-05-11T07:23:34.577Z,47.49
2018-05-11T07:24:37.902Z,47.69
2018-05-11T07:25:41.227Z,47.85
2018-05-11T07:26:44.579Z,47.99
2018-05-11T07:27:47.910Z,48.03
2018-05-11T07:28:51.239Z,48.05
2018-05-11T07:29:54.540Z,48.01
2018-05-11T07:30:57.863Z,47.98
2018-05-11T07:32:01.323Z,48.02
2018-05-11T07:33:04.659Z,48.02
2018-05-11T07:34:07.983Z,48.07
2018-05-11T07:35:11.317Z,48.25
2018-05-11T07:36:14.631Z,48.27
2018-05-11T07:37:17.955Z,48.20
2018-05-11T07:38:21.313Z,48.14
2018-05-11T07:39:24.664Z,47.98
2018-05-11T07:40:27.997Z,47.90
2018-05-11T07:41:31.345Z,47.85
2018-05-11T07:42:34.831Z,47.86
2018-05-11T07:43:38.185Z,47.69
2018-05-11T07:44:41.497Z,47.56
2018-05-11T07:45:44.844Z,47.35
2018-05-11T07:46:48.158Z,47.12
2018-05-11T07:47:51.494Z,46.87
2018-05-11T07:48:54.851Z,46.67
2018-05-11T07:49:58.170Z,46.52
2018-05-11T07:51:01.504Z,46.31
2018-05-11T07:52:04.834Z,46.20
2018-05-11T07:53:08.173Z,46.27
2018-05-11T07:54:12.260Z,46.37
2018-05-11T07:55:15.608Z,46.43
2018-05-11T07:56:18.951Z,46.41
2018-05-11T07:57:22.303Z,46.47
2018-05-11T07:58:25.627Z,46.29
2018-05-11T07:59:28.980Z,46.26
2018-05-11T08:00:32.295Z,46.06
2018-05-11T08:01:35.616Z,46.03
2018-05-11T08:02:38.934Z,45.89
2018-05-11T08:03:42.247Z,45.70
2018-05-11T08:04:45.639Z,45.43
2018-05-11T08:05:48.969Z,45.18
2018-05-11T08:06:52.290Z,45.01
2018-05-11T08:07:55.617Z,44.99
2018-05-11T08:08:58.932Z,44.92
2018-05-11T08:10:02.290Z,44.89
2018-05-11T08:11:05.697Z,44.98
2018-05-11T08:12:09.020Z,44.98
2018-05-11T08:13:12.349Z,45.02
2018-05-11T08:14:15.781Z,45.08
2018-05-11T08:15:19.329Z,45.14
2018-05-11T08:16:22.660Z,45.15
2018-05-11T08:17:25.988Z,45.15
2018-05-11T08:18:29.315Z,45.10
2018-05-11T08:19:32.635Z,45.06
2018-05-11T08:20:36.021Z,45.05
2018-05-11T08:21:39.449Z,45.08
2018-05-11T08:22:42.722Z,44.99
2018-05-11T08:23:46.037Z,44.91
2018-05-11T08:24:49.337Z,44.82
2018-05-11T08:25:52.678Z,44.76
2018-05-11T08:26:56.085Z,44.67
2018-05-11T08:27:59.315Z,44.58
2018-05-11T08:29:02.633Z,44.53
2018-05-11T08:30:05.977Z,44.44
2018-05-11T08:31:09.351Z,44.38
2018-05-11T08:32:12.659Z,44.35
2018-05-11T08:33:16.023Z,44.36
2018-05-11T08:34:19.340Z,44.30
2018-05-11T08:35:22.661Z,44.23
2018-05-11T08:36:26.012Z,44.11
2018-05-11T08:37:29.369Z,43.96
2018-05-11T08:38:32.684Z,43.90
2018-05-11T08:39:36.011Z,43.92
2018-05-11T08:40:39.405Z,43.86
2018-05-11T08:41:42.751Z,43.85
2018-05-11T08:42:46.068Z,43.80
2018-05-11T08:43:49.422Z,43.81
2018-05-11T08:44:52.744Z,43.86
2018-05-11T08:45:56.083Z,43.80
2018-05-11T08:46:59.461Z,43.92
2018-05-11T08:48:02.786Z,44.01
2018-05-11T08:49:06.091Z,44.10
2018-05-11T08:50:09.411Z,44.11
2018-05-11T08:51:12.892Z,44.05
2018-05-11T08:52:16.240Z,44.03
2018-05-11T08:53:19.561Z,44.01
2018-05-11T08:54:22.868Z,44.00
2018-05-11T08:55:26.198Z,43.99
2018-05-11T08:56:29.523Z,43.99
2018-05-11T08:57:32.875Z,43.99
2018-05-11T08:58:36.200Z,44.02
2018-05-11T08:59:39.576Z,44.08
2018-05-11T09:00:42.895Z,44.08
2018-05-11T09:01:46.240Z,44.24
2018-05-11T09:02:49.589Z,44.41
2018-05-11T09:03:52.911Z,44.48
2018-05-11T09:04:56.227Z,44.57
2018-05-11T09:05:59.559Z,44.67
2018-05-11T09:07:02.902Z,44.80
2018-05-11T09:08:06.304Z,44.86
2018-05-11T09:09:09.640Z,44.93
2018-05-11T09:10:12.982Z,44.97
2018-05-11T09:11:16.320Z,44.88
2018-05-11T09:12:19.658Z,44.75
2018-05-11T09:13:24.157Z,44.69
2018-05-11T09:14:27.569Z,44.69
2018-05-11T09:15:31.148Z,44.70
2018-05-11T09:16:34.495Z,44.74
2018-05-11T09:17:38.010Z,44.74
2018-05-11T09:18:41.350Z,44.65
2018-05-11T09:19:44.664Z,44.54
2018-05-11T09:20:48.020Z,44.53
2018-05-11T09:21:51.337Z,44.55
2018-05-11T09:22:54.731Z,44.58
2018-05-11T09:23:58.166Z,44.64
2018-05-11T09:25:03.642Z,44.66
2018-05-11T09:26:06.956Z,44.69
2018-05-11T09:27:10.279Z,44.67
2018-05-11T09:28:13.611Z,44.53
2018-05-11T09:29:17.012Z,44.35
2018-05-11T09:30:20.352Z,44.26
2018-05-11T09:31:23.744Z,44.25
2018-05-11T09:32:27.055Z,44.23
2018-05-11T09:33:30.387Z,44.05
2018-05-11T09:34:33.740Z,43.97
2018-05-11T09:35:37.093Z,43.84
2018-05-11T09:36:40.423Z,43.83
2018-05-11T09:37:43.771Z,43.81
2018-05-11T09:38:47.368Z,43.75
2018-05-11T09:39:50.734Z,43.64
2018-05-11T09:40:54.052Z,43.63
2018-05-11T09:41:57.459Z,43.64
2018-05-11T09:43:00.774Z,43.60
2018-05-11T09:44:04.107Z,43.56
2018-05-11T09:45:07.462Z,43.46
2018-05-11T09:46:12.107Z,43.41
2018-05-11T09:47:15.451Z,43.38
2018-05-11T09:48:18.799Z,43.38
2018-05-11T09:49:22.208Z,43.31
2018-05-11T09:50:25.494Z,43.32
2018-05-11T09:51:28.880Z,43.41
2018-05-11T09:52:32.224Z,43.56
2018-05-11T09:53:35.695Z,43.66
2018-05-11T09:54:39.018Z,43.66
2018-05-11T09:55:42.365Z,43.72
2018-05-11T09:56:45.694Z,43.88
2018-05-11T09:57:49.019Z,43.96
2018-05-11T09:58:52.332Z,44.01
2018-05-11T09:59:55.665Z,43.84
2018-05-11T10:00:59.020Z,43.55
2018-05-11T10:02:02.446Z,43.45
2018-05-11T10:03:05.663Z,43.49
2018-05-11T10:04:08.986Z,43.59
2018-05-11T10:05:12.342Z,43.66
2018-05-11T10:06:15.680Z,43.74
2018-05-11T10:07:18.999Z,43.85
2018-05-11T10:08:22.363Z,43.90
2018-05-11T10:09:25.709Z,43.91
2018-05-11T10:10:29.069Z,43.88
2018-05-11T10:11:32.435Z,43.64
2018-05-11T10:12:35.759Z,43.59
2018-05-11T10:13:39.098Z,43.53
2018-05-11T10:14:42.428Z,43.56
2018-05-11T10:15:45.876Z,43.67
2018-05-11T10:16:49.243Z,43.73
2018-05-11T10:17:52.590Z,43.75
2018-05-11T10:18:56.075Z,43.84
2018-05-11T10:19:59.400Z,43.90
2018-05-11T10:21:02.729Z,43.98
2018-05-11T10:22:06.078Z,44.07
2018-05-11T10:23:09.408Z,44.07
2018-05-11T10:24:12.735Z,44.04
2018-05-11T10:25:16.051Z,44.04
2018-05-11T10:26:19.393Z,44.09
2018-05-11T10:27:22.751Z,44.11
2018-05-11T10:28:26.108Z,44.15
2018-05-11T10:29:29.531Z,43.89
2018-05-11T10:30:34.215Z,43.73
2018-05-11T10:31:37.579Z,43.61
2018-05-11T10:32:40.962Z,43.57
2018-05-11T10:33:44.278Z,43.50
2018-05-11T10:34:47.598Z,43.43
2018-05-11T10:35:50.927Z,43.51
2018-05-11T10:36:54.264Z,43.55
2018-05-11T10:37:57.608Z,43.57
2018-05-11T10:39:00.969Z,43.65
2018-05-11T10:40:04.274Z,43.71
2018-05-11T10:41:07.593Z,43.84
2018-05-11T10:42:10.921Z,43.92
2018-05-11T10:43:14.292Z,43.91
2018-05-11T10:44:17.651Z,43.79
2018-05-11T10:45:20.988Z,43.62
2018-05-11T10:46:24.315Z,43.51
2018-05-11T10:47:27.635Z,43.51
2018-05-11T10:48:31.092Z,43.54
2018-05-11T10:49:34.401Z,43.39
2018-05-11T10:50:37.713Z,43.29
2018-05-11T10:51:41.051Z,43.10
2018-05-11T10:52:44.384Z,43.01
2018-05-11T10:53:47.712Z,42.93
2018-05-11T10:54:51.037Z,42.93
2018-05-11T10:55:54.683Z,42.90
2018-05-11T10:56:58.012Z,42.88
2018-05-11T10:58:01.327Z,42.91
2018-05-11T10:59:04.690Z,42.96
2018-05-11T11:00:08.019Z,43.00
2018-05-11T11:01:11.329Z,43.11
2018-05-11T11:02:14.676Z,43.12
2018-05-11T11:03:17.998Z,43.01
2018-05-11T11:04:21.339Z,42.91
2018-05-11T11:05:24.660Z,42.76
2018-05-11T11:06:27.982Z,42.74
2018-05-11T11:07:31.292Z,42.75
2018-05-11T11:08:34.620Z,42.90
2018-05-11T11:09:37.984Z,42.82
2018-05-11T11:10:41.289Z,42.71
2018-05-11T11:11:44.639Z,42.58
2018-05-11T11:12:47.945Z,42.41
2018-05-11T11:13:51.253Z,42.23
2018-05-11T11:14:54.588Z,42.12
2018-05-11T11:15:57.971Z,42.01
2018-05-11T11:17:01.348Z,41.82
2018-05-11T11:18:04.672Z,41.68
2018-05-11T11:19:07.997Z,41.58
2018-05-11T11:20:11.336Z,41.55
2018-05-11T11:21:14.684Z,41.49
2018-05-11T11:22:18.009Z,41.46
2018-05-11T11:23:21.338Z,41.55
2018-05-11T11:24:24.717Z,41.50
2018-05-11T11:25:28.118Z,41.40
2018-05-11T11:26:31.451Z,41.34
2018-05-11T11:27:34.780Z,41.31
2018-05-11T11:28:38.151Z,41.24
2018-05-11T11:29:41.490Z,41.24
2018-05-11T11:30:44.908Z,41.29
2018-05-11T11:31:48.245Z,41.32
2018-05-11T11:32:51.575Z,41.37
2018-05-11T11:33:55.006Z,41.38
2018-05-11T11:34:58.335Z,41.39
2018-05-11T11:36:01.709Z,41.30
2018-05-11T11:37:05.030Z,41.14
2018-05-11T11:38:08.503Z,40.97
2018-05-11T11:39:11.845Z,40.79
2018-05-11T11:40:15.173Z,40.68
2018-05-11T11:41:18.521Z,40.43
2018-05-11T11:42:21.844Z,40.17
2018-05-11T11:43:25.176Z,39.99
2018-05-11T11:44:28.499Z,39.92
2018-05-11T11:45:31.840Z,39.90
2018-05-11T11:46:35.186Z,39.87
2018-05-11T11:47:38.630Z,39.85
2018-05-11T11:48:41.877Z,39.84
2018-05-11T11:49:45.196Z,39.74
2018-05-11T11:50:48.508Z,39.63
2018-05-11T11:51:51.858Z,39.55
2018-05-11T11:52:55.195Z,39.52
2018-05-11T11:53:58.554Z,39.40
2018-05-11T11:55:01.975Z,39.30
2018-05-11T11:56:05.323Z,39.08
2018-05-11T11:57:08.706Z,38.96
2018-05-11T11:58:12.041Z,38.85
2018-05-11T11:59:15.377Z,38.89
2018-05-11T12:00:18.723Z,38.95
2018-05-11T12:01:22.057Z,39.07
2018-05-11T12:02:25.400Z,39.00
2018-05-11T12:03:28.766Z,38.74
2018-05-11T12:04:32.105Z,38.69
2018-05-11T12:05:35.629Z,38.78
2018-05-11T12:06:38.976Z,38.85
2018-05-11T12:07:42.323Z,38.78
2018-05-11T12:08:45.648Z,38.75
2018-05-11T12:09:48.971Z,38.68
2018-05-11T12:10:52.339Z,38.67
2018-05-11T12:11:55.676Z,38.56
2018-05-11T12:12:59.033Z,38.45
2018-05-11T12:14:02.350Z,38.37
2018-05-11T12:15:05.697Z,38.27
2018-05-11T12:16:09.272Z,38.17
2018-05-11T12:17:12.598Z,37.97
2018-05-11T12:18:15.961Z,37.87
2018-05-11T12:19:19.285Z,37.73
2018-05-11T12:20:22.840Z,37.77
2018-05-11T12:21:26.158Z,37.80
2018-05-11T12:22:29.482Z,37.80
2018-05-11T12:23:32.833Z,37.78
2018-05-11T12:24:36.161Z,37.80
2018-05-11T12:25:39.516Z,37.79
2018-05-11T12:26:42.826Z,37.82
2018-05-11T12:27:46.247Z,37.88
2018-05-11T12:28:49.592Z,37.93
2018-05-11T12:29:52.925Z,37.84
2018-05-11T12:30:56.309Z,37.63
2018-05-11T12:31:59.650Z,37.52
2018-05-11T12:33:03.157Z,37.42
2018-05-11T12:34:06.511Z,37.32
2018-05-11T12:35:09.836Z,37.14
2018-05-11T12:36:13.175Z,37.00
2018-05-11T12:37:16.655Z,36.90
2018-05-11T12:38:19.974Z,36.87
2018-05-11T12:39:23.416Z,36.90
2018-05-11T12:40:26.765Z,36.96
2018-05-11T12:41:30.081Z,36.85
2018-05-11T12:42:33.487Z,36.64
2018-05-11T12:43:36.843Z,36.49
2018-05-11T12:44:40.206Z,36.46
2018-05-11T12:45:43.543Z,36.42
2018-05-11T12:46:46.872Z,36.34
2018-05-11T12:47:50.256Z,36.24
2018-05-11T12:48:53.599Z,36.12
2018-05-11T12:49:56.948Z,35.89
2018-05-11T12:51:00.266Z,35.80
2018-05-11T12:52:03.600Z,35.84
2018-05-11T12:53:06.921Z,35.82
2018-05-11T12:54:10.237Z,35.90
2018-05-11T12:55:13.605Z,35.77
2018-05-11T12:56:16.954Z,35.84
2018-05-11T12:57:20.278Z,35.85
2018-05-11T12:58:23.595Z,35.71
2018-05-11T12:59:26.925Z,35.63
2018-05-11T13:00:30.265Z,35.41
2018-05-11T13:01:33.600Z,35.20
2018-05-11T13:02:36.914Z,34.94
2018-05-11T13:03:40.242Z,34.63
2018-05-11T13:04:43.561Z,34.52
2018-05-11T13:05:46.899Z,34.39
2018-05-11T13:06:50.230Z,34.35
2018-05-11T13:07:53.530Z,34.23
2018-05-11T13:08:56.849Z,33.24
2018-05-11T13:10:00.170Z,32.67
2018-05-11T13:11:03.496Z,32.25
2018-05-11T13:12:06.806Z,31.59
2018-05-11T13:13:10.150Z,30.83
2018-05-11T13:14:13.473Z,30.40
2018-05-11T13:15:16.784Z,30.73
2018-05-11T13:16:20.275Z,30.54
2018-05-11T13:17:23.592Z,30.50
2018-05-11T13:18:27.812Z,30.57
2018-05-11T13:19:31.167Z,30.75
2018-05-11T13:20:34.567Z,31.01
2018-05-11T13:21:37.884Z,31.19
2018-05-11T13:22:41.327Z,31.24
2018-05-11T13:23:44.664Z,31.47
2018-05-11T13:24:47.995Z,31.51
2018-05-11T13:25:51.318Z,31.64
2018-05-11T13:26:54.678Z,31.85
2018-05-11T13:27:58.016Z,32.06
2018-05-11T13:29:01.342Z,32.21
2018-05-11T13:30:04.698Z,32.36
2018-05-11T13:31:08.015Z,32.44
2018-05-11T13:32:11.383Z,32.42
2018-05-11T13:33:14.756Z,32.50
2018-05-11T13:34:18.085Z,32.56
2018-05-11T13:35:21.411Z,32.54
2018-05-11T13:36:24.759Z,32.54
2018-05-11T13:37:28.109Z,32.51
2018-05-11T13:38:31.444Z,32.12
2018-05-11T13:39:34.781Z,31.60
2018-05-11T13:40:38.097Z,31.53